createdAt,value
2023-04-28T00:00:12.552Z,18.36
2023-04-28T00:02:38.966Z,18.33
2023-04-28T00:05:05.498Z,18.33
2023-04-28T00:07:31.967Z,18.31
2023-04-28T00:09:58.399Z,18.28
2023-04-28T00:12:24.835Z,18.26
2023-04-28T00:14:51.520Z,18.22
2023-04-28T00:17:18.331Z,18.22
2023-04-28T00:19:44.690Z,18.22
2023-04-28T00:22:11.146Z,18.17
2023-04-28T00:24:37.607Z,18.17
2023-04-28T00:27:04.035Z,18.15
2023-04-28T00:29:30.569Z,18.15
2023-04-28T00:31:57.218Z,18.12
2023-04-28T00:34:23.612Z,18.08
2023-04-28T00:36:50.030Z,18.06
2023-04-28T00:39:16.665Z,18.09
2023-04-28T00:41:44.262Z,18.06
2023-04-28T00:44:10.570Z,18.05
2023-04-28T00:46:36.966Z,18.01
2023-04-28T00:49:03.636Z,18.02
2023-04-28T00:51:32.557Z,18.01
2023-04-28T00:53:59.612Z,17.95
2023-04-28T00:56:26.016Z,17.95
2023-04-28T00:58:52.467Z,17.94
2023-04-28T01:01:19.044Z,17.93
2023-04-28T01:03:50.295Z,17.92
2023-04-28T01:06:23.034Z,17.92
2023-04-28T01:08:50.771Z,17.84
2023-04-28T01:11:17.578Z,17.87
2023-04-28T01:13:44.008Z,17.87
2023-04-28T01:16:11.101Z,17.84
2023-04-28T01:18:39.638Z,17.84
2023-04-28T01:21:06.238Z,17.82
2023-04-28T01:23:32.990Z,17.84
2023-04-28T01:25:59.553Z,17.82
2023-04-28T01:28:25.834Z,17.79
2023-04-28T01:30:52.174Z,17.77
2023-04-28T01:33:18.644Z,17.75
2023-04-28T01:35:45.311Z,17.72
2023-04-28T01:38:11.934Z,17.73
2023-04-28T01:40:38.422Z,17.71
2023-04-28T01:43:04.741Z,17.69
2023-04-28T01:45:31.898Z,17.66
2023-04-28T01:47:58.256Z,17.68
2023-04-28T01:50:25.741Z,17.67
2023-04-28T01:52:52.172Z,17.66
2023-04-28T01:55:18.553Z,17.65
2023-04-28T01:57:45.475Z,17.63
2023-04-28T02:00:12.030Z,17.64
2023-04-28T02:02:39.159Z,17.61
2023-04-28T02:05:06.385Z,17.60
2023-04-28T02:07:32.788Z,17.60
2023-04-28T02:09:59.163Z,17.58
2023-04-28T02:12:25.600Z,17.57
2023-04-28T02:14:51.923Z,17.56
2023-04-28T02:17:18.363Z,17.57
2023-04-28T02:19:44.720Z,17.53
2023-04-28T02:22:11.305Z,17.54
2023-04-28T02:24:37.659Z,17.51
2023-04-28T02:27:04.108Z,17.50
2023-04-28T02:29:30.506Z,17.52
2023-04-28T02:31:57.119Z,17.51
2023-04-28T02:37:16.909Z,17.47
2023-04-28T02:39:43.328Z,17.47
2023-04-28T02:42:09.742Z,17.45
2023-04-28T02:44:36.555Z,17.47
2023-04-28T02:47:02.969Z,17.48
2023-04-28T02:49:29.518Z,17.43
2023-04-28T02:51:56.229Z,17.43
2023-04-28T02:54:22.863Z,17.43
2023-04-28T02:56:49.405Z,17.41
2023-04-28T02:59:15.847Z,17.40
2023-04-28T03:01:42.266Z,17.39
2023-04-28T03:04:09.444Z,17.36
2023-04-28T03:06:35.926Z,17.36
2023-04-28T03:09:02.487Z,17.35
2023-04-28T03:11:28.880Z,17.34
2023-04-28T03:13:55.245Z,17.33
2023-04-28T03:16:21.586Z,17.32
2023-04-28T03:18:48.082Z,17.29
2023-04-28T03:21:15.012Z,17.27
2023-04-28T03:23:41.377Z,17.28
2023-04-28T03:26:08.153Z,17.27
2023-04-28T03:28:35.055Z,17.26
2023-04-28T03:31:02.746Z,17.25
2023-04-28T03:33:29.078Z,17.22
2023-04-28T03:35:55.569Z,17.22
2023-04-28T03:38:23.030Z,17.21
2023-04-28T03:40:49.458Z,17.21
2023-04-28T03:43:15.811Z,17.21
2023-04-28T03:45:42.204Z,17.19
2023-04-28T03:48:08.663Z,17.18
2023-04-28T03:50:35.191Z,17.17
2023-04-28T03:53:01.837Z,17.14
2023-04-28T03:55:28.419Z,17.15
2023-04-28T03:57:54.865Z,17.12
2023-04-28T04:00:21.249Z,17.11
2023-04-28T04:02:48.045Z,17.11
2023-04-28T04:05:14.780Z,17.10
2023-04-28T04:07:41.258Z,17.10
2023-04-28T04:10:07.681Z,17.07
2023-04-28T04:12:33.985Z,17.08
2023-04-28T04:15:01.780Z,17.05
2023-04-28T04:17:29.717Z,17.04
2023-04-28T04:19:56.919Z,17.06
2023-04-28T04:22:23.241Z,17.05
2023-04-28T04:24:49.749Z,17.03
2023-04-28T04:27:16.180Z,17.03
2023-04-28T04:29:42.468Z,17.01
2023-04-28T04:32:08.819Z,17.01
2023-04-28T04:34:35.589Z,16.98
2023-04-28T04:37:01.989Z,16.98
2023-04-28T04:39:28.315Z,16.97
2023-04-28T04:41:54.726Z,16.97
2023-04-28T04:44:21.037Z,16.94
2023-04-28T04:46:49.020Z,16.97
2023-04-28T04:49:15.515Z,16.97
2023-04-28T04:51:42.046Z,16.95
2023-04-28T04:54:08.509Z,16.94
2023-04-28T04:56:34.907Z,16.92
2023-04-28T04:59:01.414Z,16.91
2023-04-28T05:01:27.844Z,16.91
2023-04-28T05:03:54.632Z,16.91
2023-04-28T05:06:21.265Z,16.91
2023-04-28T05:08:47.637Z,16.89
2023-04-28T05:11:13.983Z,16.90
2023-04-28T05:13:40.675Z,16.91
2023-04-28T05:16:07.292Z,16.91
2023-04-28T05:18:33.772Z,16.91
2023-04-28T05:21:00.074Z,16.94
2023-04-28T05:23:26.588Z,16.95
2023-04-28T05:25:53.120Z,16.93
2023-04-28T05:28:21.973Z,16.94
2023-04-28T05:30:48.835Z,16.96
2023-04-28T05:33:15.512Z,16.92
2023-04-28T05:35:41.906Z,16.95
2023-04-28T05:38:08.757Z,16.95
2023-04-28T05:40:35.148Z,16.83
2023-04-28T05:43:02.795Z,16.77
2023-04-28T05:45:29.453Z,16.79
2023-04-28T05:47:55.946Z,16.78
2023-04-28T05:50:22.336Z,16.80
2023-04-28T05:52:48.923Z,16.78
2023-04-28T05:55:15.459Z,16.80
2023-04-28T05:57:49.675Z,16.78
2023-04-28T06:00:18.988Z,16.75
2023-04-28T06:02:45.772Z,16.78
2023-04-28T06:05:12.540Z,16.78
2023-04-28T06:07:39.272Z,16.78
2023-04-28T06:10:05.884Z,16.76
2023-04-28T06:12:32.318Z,16.75
2023-04-28T06:14:58.712Z,16.75
2023-04-28T06:17:25.230Z,16.74
2023-04-28T06:19:51.630Z,16.71
2023-04-28T06:22:18.050Z,16.69
2023-04-28T06:24:44.308Z,16.69
2023-04-28T06:27:10.736Z,16.69
2023-04-28T06:29:37.573Z,16.63
2023-04-28T06:32:04.019Z,16.62
2023-04-28T06:34:30.341Z,16.66
2023-04-28T06:36:56.755Z,16.67
2023-04-28T06:39:23.461Z,16.67
2023-04-28T06:41:49.757Z,16.62
2023-04-28T06:44:16.544Z,16.70
2023-04-28T06:46:43.336Z,16.71
2023-04-28T06:49:09.750Z,16.75
2023-04-28T06:51:36.530Z,16.64
2023-04-28T06:54:03.060Z,16.70
2023-04-28T06:56:29.584Z,16.73
2023-04-28T06:58:55.978Z,16.69
2023-04-28T07:01:22.389Z,16.75
2023-04-28T07:03:49.214Z,16.73
2023-04-28T07:06:16.007Z,16.75
2023-04-28T07:08:42.319Z,16.71
2023-04-28T07:11:08.740Z,16.72
2023-04-28T07:13:35.189Z,16.69
2023-04-28T07:16:02.067Z,16.72
2023-04-28T07:18:28.534Z,16.70
2023-04-28T07:20:55.036Z,16.69
2023-04-28T07:23:21.408Z,16.71
2023-04-28T07:25:47.828Z,16.68
2023-04-28T07:28:14.226Z,16.59
2023-04-28T07:30:40.700Z,16.69
2023-04-28T07:33:07.385Z,16.72
2023-04-28T07:35:33.794Z,16.70
2023-04-28T07:38:00.188Z,16.63
2023-04-28T07:40:26.623Z,16.68
2023-04-28T07:42:53.087Z,16.72
2023-04-28T07:45:19.536Z,16.67
2023-04-28T07:47:46.178Z,16.68
2023-04-28T07:50:12.713Z,16.69
2023-04-28T07:52:39.225Z,16.56
2023-04-28T07:55:06.363Z,16.63
2023-04-28T07:57:32.836Z,16.67
2023-04-28T07:59:59.167Z,16.56
2023-04-28T08:02:25.934Z,16.58
2023-04-28T08:04:52.522Z,16.60
2023-04-28T08:07:19.043Z,16.74
2023-04-28T08:09:45.404Z,16.76
2023-04-28T08:12:11.772Z,16.66
2023-04-28T08:14:38.218Z,16.60
2023-04-28T08:17:04.762Z,16.63
2023-04-28T08:19:31.743Z,16.54
2023-04-28T08:21:58.186Z,16.61
2023-04-28T08:24:24.687Z,16.69
2023-04-28T08:26:51.051Z,16.68
2023-04-28T08:29:17.419Z,16.67
2023-04-28T08:31:44.170Z,16.58
2023-04-28T08:34:10.641Z,16.54
2023-04-28T08:36:37.198Z,16.58
2023-04-28T08:39:03.608Z,16.56
2023-04-28T08:41:29.990Z,16.62
2023-04-28T08:43:56.702Z,16.63
2023-04-28T08:46:23.170Z,16.66
2023-04-28T08:48:49.809Z,16.53
2023-04-28T08:51:16.361Z,16.67
2023-04-28T08:54:06.138Z,16.63
2023-04-28T08:56:29.160Z,16.52
2023-04-28T08:58:55.573Z,16.70
2023-04-28T09:01:21.987Z,16.66
2023-04-28T09:03:48.553Z,16.61
2023-04-28T09:06:16.863Z,16.53
2023-04-28T09:08:43.291Z,16.56
2023-04-28T09:11:09.708Z,16.51
2023-04-28T09:13:36.071Z,16.47
2023-04-28T09:16:02.451Z,16.46
2023-04-28T09:18:28.765Z,16.43
2023-04-28T09:20:55.664Z,16.40
2023-04-28T09:23:22.258Z,16.37
2023-04-28T09:25:58.476Z,16.37
2023-04-28T09:28:24.888Z,16.35
2023-04-28T09:30:51.476Z,16.32
2023-04-28T09:33:17.994Z,16.31
2023-04-28T09:35:44.415Z,16.36
2023-04-28T09:38:11.338Z,16.31
2023-04-28T09:40:38.507Z,16.33
2023-04-28T09:43:15.295Z,16.33
2023-04-28T09:45:47.865Z,16.31
2023-04-28T09:48:14.285Z,16.31
2023-04-28T09:50:40.737Z,16.31
2023-04-28T09:53:07.583Z,16.32
2023-04-28T09:55:33.916Z,16.28
2023-04-28T09:58:00.326Z,16.26
2023-04-28T10:00:27.101Z,16.27
2023-04-28T10:02:53.636Z,16.26
2023-04-28T10:05:20.846Z,16.26
2023-04-28T10:07:47.361Z,16.25
2023-04-28T10:10:13.778Z,16.27
2023-04-28T10:12:40.217Z,16.24
2023-04-28T10:15:06.606Z,16.23
2023-04-28T10:17:33.046Z,16.25
2023-04-28T10:19:59.511Z,16.23
2023-04-28T10:22:26.264Z,16.22
2023-04-28T10:24:52.652Z,16.25
2023-04-28T10:27:19.745Z,16.23
2023-04-28T10:29:46.191Z,16.22
2023-04-28T10:32:13.116Z,16.25
2023-04-28T10:34:39.557Z,16.23
2023-04-28T10:37:05.979Z,16.24
2023-04-28T10:39:32.441Z,16.24
2023-04-28T10:41:59.362Z,16.23
2023-04-28T10:44:25.660Z,16.26
2023-04-28T10:46:53.481Z,16.26
2023-04-28T10:49:19.970Z,16.25
2023-04-28T10:51:46.528Z,16.24
2023-04-28T10:54:12.887Z,16.25
2023-04-28T10:56:41.375Z,16.24
2023-04-28T10:59:08.409Z,16.23
2023-04-28T11:01:35.172Z,16.25
2023-04-28T11:04:01.936Z,16.20
2023-04-28T11:06:28.767Z,16.18
2023-04-28T11:08:55.278Z,16.14
2023-04-28T11:11:21.971Z,16.19
2023-04-28T11:13:48.668Z,16.21
2023-04-28T11:16:15.439Z,16.21
2023-04-28T11:18:42.414Z,16.22
2023-04-28T11:21:09.096Z,16.24
2023-04-28T11:23:35.510Z,16.28
2023-04-28T11:26:01.894Z,16.27
2023-04-28T11:28:28.689Z,16.27
2023-04-28T11:30:55.159Z,16.27
2023-04-28T11:33:21.623Z,16.29
2023-04-28T11:35:47.964Z,16.31
2023-04-28T11:38:14.777Z,16.30
2023-04-28T11:40:41.746Z,16.32
2023-04-28T11:43:08.125Z,16.27
2023-04-28T11:45:34.514Z,16.07
2023-04-28T11:48:01.017Z,16.20
2023-04-28T11:50:27.660Z,16.21
2023-04-28T11:52:54.151Z,16.21
2023-04-28T11:55:20.598Z,16.20
2023-04-28T11:57:46.975Z,16.20
2023-04-28T12:00:13.362Z,16.19
2023-04-28T12:02:40.195Z,16.21
2023-04-28T12:05:06.753Z,16.21
2023-04-28T12:07:33.930Z,16.19
2023-04-28T12:10:00.255Z,16.19
2023-04-28T12:12:39.579Z,16.20
2023-04-28T12:15:12.203Z,16.19
2023-04-28T12:17:39.618Z,16.19
2023-04-28T12:20:05.898Z,16.19
2023-04-28T12:22:32.232Z,16.19
2023-04-28T12:24:58.680Z,16.19
2023-04-28T12:27:25.516Z,16.19
2023-04-28T12:29:51.899Z,16.20
2023-04-28T12:32:18.322Z,16.21
2023-04-28T12:34:46.218Z,16.19
2023-04-28T12:37:12.530Z,16.21
2023-04-28T12:39:39.767Z,16.22
2023-04-28T12:42:06.530Z,16.21
2023-04-28T12:44:32.957Z,16.20
2023-04-28T12:47:01.225Z,16.20
2023-04-28T12:49:27.788Z,16.21
2023-04-28T12:51:54.120Z,16.21
2023-04-28T12:54:20.761Z,16.22
2023-04-28T12:56:47.511Z,16.24
2023-04-28T12:59:13.836Z,16.20
2023-04-28T13:01:40.241Z,16.24
2023-04-28T13:04:07.295Z,16.20
2023-04-28T13:06:33.869Z,16.20
2023-04-28T13:09:00.340Z,16.20
2023-04-28T13:11:27.047Z,16.22
2023-04-28T13:13:53.888Z,16.21
2023-04-28T13:16:20.285Z,16.21
2023-04-28T13:18:46.569Z,16.20
2023-04-28T13:21:13.106Z,16.21
2023-04-28T13:23:39.632Z,16.22
2023-04-28T13:26:06.355Z,16.21
2023-04-28T13:28:32.788Z,16.21
2023-04-28T13:30:59.562Z,16.20
2023-04-28T13:33:26.199Z,16.23
2023-04-28T13:35:52.858Z,16.19
2023-04-28T13:38:19.563Z,16.22
2023-04-28T13:40:46.151Z,16.21
2023-04-28T13:43:12.852Z,16.20
2023-04-28T13:45:39.265Z,16.22
2023-04-28T13:48:05.656Z,16.20
2023-04-28T13:50:32.359Z,16.19
2023-04-28T13:52:58.708Z,16.22
2023-04-28T13:55:25.100Z,16.19
2023-04-28T13:57:52.598Z,16.21
2023-04-28T14:00:19.044Z,16.21
2023-04-28T14:02:45.517Z,16.19
2023-04-28T14:05:11.965Z,16.19
2023-04-28T14:07:38.347Z,16.19
2023-04-28T14:10:05.204Z,16.20
2023-04-28T14:12:31.586Z,16.17
2023-04-28T14:14:57.984Z,16.21
2023-04-28T14:17:25.124Z,16.18
2023-04-28T14:19:52.359Z,16.19
2023-04-28T14:22:18.668Z,16.20
2023-04-28T14:24:45.249Z,16.17
2023-04-28T14:27:11.991Z,16.18
2023-04-28T14:29:38.298Z,16.17
2023-04-28T14:32:04.733Z,16.19
2023-04-28T14:34:31.351Z,16.18
2023-04-28T14:36:57.762Z,16.19
2023-04-28T14:39:24.189Z,16.17
2023-04-28T14:41:50.780Z,16.18
2023-04-28T14:44:17.149Z,16.17
2023-04-28T14:46:44.897Z,16.16
2023-04-28T14:49:11.335Z,16.19
2023-04-28T14:51:38.436Z,16.17
2023-04-28T14:54:05.046Z,16.17
2023-04-28T14:56:33.373Z,16.16
2023-04-28T14:59:00.273Z,16.17
2023-04-28T15:01:26.676Z,16.17
2023-04-28T15:03:53.262Z,16.16
2023-04-28T15:06:19.850Z,16.17
2023-04-28T15:08:46.535Z,16.17
2023-04-28T15:11:13.131Z,16.18
2023-04-28T15:13:41.001Z,16.17
2023-04-28T15:16:08.813Z,16.17
2023-04-28T15:18:36.854Z,16.18
2023-04-28T15:21:03.483Z,16.17
2023-04-28T15:23:29.895Z,16.18
2023-04-28T15:25:56.572Z,16.18
2023-04-28T15:28:23.310Z,16.18
2023-04-28T15:30:49.672Z,16.18
2023-04-28T15:33:16.088Z,16.17
2023-04-28T15:35:43.059Z,16.17
2023-04-28T15:38:09.650Z,16.17
2023-04-28T15:40:36.150Z,16.19
2023-04-28T15:43:02.848Z,16.18
2023-04-28T15:45:29.419Z,16.18
2023-04-28T15:47:56.387Z,16.18
2023-04-28T15:50:22.699Z,16.18
2023-04-28T15:52:49.160Z,16.17
2023-04-28T15:55:16.068Z,16.17
2023-04-28T15:57:42.358Z,16.15
2023-04-28T16:00:08.688Z,16.16
2023-04-28T16:02:35.212Z,16.15
2023-04-28T16:05:01.751Z,16.17
2023-04-28T16:07:28.202Z,16.16
2023-04-28T16:09:54.982Z,16.15
2023-04-28T16:12:21.329Z,16.16
2023-04-28T16:14:47.621Z,16.17
2023-04-28T16:17:13.943Z,16.14
2023-04-28T16:19:40.243Z,16.14
2023-04-28T16:22:06.679Z,16.14
2023-04-28T16:24:33.005Z,16.12
2023-04-28T16:26:59.452Z,16.11
2023-04-28T16:29:25.866Z,16.11
2023-04-28T16:31:54.505Z,16.10
2023-04-28T16:34:21.211Z,16.10
2023-04-28T16:36:47.597Z,16.09
2023-04-28T16:39:14.030Z,16.12
2023-04-28T16:41:41.004Z,16.11
2023-04-28T16:44:07.347Z,16.11
2023-04-28T16:46:34.813Z,16.12
2023-04-28T16:49:01.189Z,16.12
2023-04-28T16:51:27.654Z,16.11
2023-04-28T16:53:54.079Z,16.13
2023-04-28T16:56:20.528Z,16.14
2023-04-28T16:58:47.019Z,16.13
2023-04-28T17:01:13.404Z,16.12
2023-04-28T17:03:40.307Z,16.15
2023-04-28T17:06:07.081Z,16.15
2023-04-28T17:08:33.520Z,16.15
2023-04-28T17:11:01.137Z,16.15
2023-04-28T17:13:27.711Z,16.14
2023-04-28T17:15:54.125Z,16.15
2023-04-28T17:18:20.723Z,16.15
2023-04-28T17:20:47.094Z,16.14
2023-04-28T17:23:14.022Z,16.14
2023-04-28T17:25:40.565Z,16.13
2023-04-28T17:28:06.901Z,16.15
2023-04-28T17:30:33.527Z,16.15
2023-04-28T17:33:00.130Z,16.16
2023-04-28T17:35:26.529Z,16.17
2023-04-28T17:37:53.089Z,16.17
2023-04-28T17:40:19.467Z,16.18
2023-04-28T17:42:46.101Z,16.18
2023-04-28T17:45:13.267Z,16.18
2023-04-28T17:47:40.038Z,16.17
2023-04-28T17:50:06.347Z,16.18
2023-04-28T17:52:32.771Z,16.19
2023-04-28T17:54:59.111Z,16.20
2023-04-28T17:57:25.526Z,16.17
2023-04-28T17:59:51.910Z,16.18
2023-04-28T18:02:18.348Z,16.18
2023-04-28T18:04:44.747Z,16.19
2023-04-28T18:07:11.236Z,16.19
2023-04-28T18:09:37.683Z,16.19
2023-04-28T18:12:04.103Z,16.20
2023-04-28T18:14:30.532Z,16.19
2023-04-28T18:16:56.893Z,16.19
2023-04-28T18:19:23.545Z,16.20
2023-04-28T18:21:50.127Z,16.20
2023-04-28T18:24:17.089Z,16.21
2023-04-28T18:26:43.498Z,16.20
2023-04-28T18:29:09.896Z,16.20
2023-04-28T18:31:36.361Z,16.20
2023-04-28T18:34:03.117Z,16.20
2023-04-28T18:36:29.455Z,16.18
2023-04-28T18:38:55.914Z,16.19
2023-04-28T18:41:22.192Z,16.19
2023-04-28T18:43:48.634Z,16.19
2023-04-28T18:46:15.037Z,16.19
2023-04-28T18:48:41.600Z,16.20
2023-04-28T18:51:07.999Z,16.18
2023-04-28T18:53:34.588Z,16.18
2023-04-28T18:56:03.754Z,16.18
2023-04-28T18:58:30.345Z,16.18
2023-04-28T19:00:57.303Z,16.19
2023-04-28T19:03:23.824Z,16.18
2023-04-28T19:05:50.275Z,16.18
2023-04-28T19:08:16.596Z,16.18
2023-04-28T19:10:43.275Z,16.17
2023-04-28T19:13:10.027Z,16.18
2023-04-28T19:15:36.593Z,16.17
2023-04-28T19:18:03.132Z,16.17
2023-04-28T19:20:30.098Z,16.18
2023-04-28T19:22:57.213Z,16.16
2023-04-28T19:25:23.918Z,16.17
2023-04-28T19:27:50.573Z,16.17
2023-04-28T19:30:16.946Z,16.18
2023-04-28T19:32:43.430Z,16.18
2023-04-28T19:35:09.869Z,16.17
2023-04-28T19:37:36.170Z,16.17
2023-04-28T19:40:02.901Z,16.17
2023-04-28T19:42:29.689Z,16.17
2023-04-28T19:44:55.976Z,16.18
2023-04-28T19:47:22.542Z,16.18
2023-04-28T19:49:49.197Z,16.19
2023-04-28T19:52:16.058Z,16.19
2023-04-28T19:54:42.479Z,16.18
2023-04-28T19:57:09.437Z,16.18
2023-04-28T19:59:35.830Z,16.18
2023-04-28T20:02:02.332Z,16.18
2023-04-28T20:04:29.164Z,16.19
2023-04-28T20:06:55.972Z,16.19
2023-04-28T20:09:22.362Z,16.19
2023-04-28T20:11:48.725Z,16.20
2023-04-28T20:14:15.145Z,16.20
2023-04-28T20:16:41.530Z,16.20
2023-04-28T20:19:08.330Z,16.19
2023-04-28T20:21:34.766Z,16.20
2023-04-28T20:24:01.510Z,16.21
2023-04-28T20:26:27.913Z,16.20
2023-04-28T20:28:54.707Z,16.19
2023-04-28T20:31:21.390Z,16.19
2023-04-28T20:33:48.041Z,16.20
2023-04-28T20:36:14.690Z,16.20
2023-04-28T20:38:41.115Z,16.20
2023-04-28T20:41:07.476Z,16.20
2023-04-28T20:43:34.316Z,16.20
2023-04-28T20:46:00.942Z,16.21
2023-04-28T20:48:27.668Z,16.21
2023-04-28T20:50:53.984Z,16.20
2023-04-28T20:53:20.436Z,16.21
2023-04-28T20:55:46.743Z,16.21
2023-04-28T20:58:13.095Z,16.20
2023-04-28T21:00:39.757Z,16.20
2023-04-28T21:03:06.320Z,16.20
2023-04-28T21:05:33.106Z,16.19
2023-04-28T21:07:59.472Z,16.19
2023-04-28T21:10:26.092Z,16.20
2023-04-28T21:12:52.496Z,16.18
2023-04-28T21:15:18.865Z,16.20
2023-04-28T21:17:45.433Z,16.20
2023-04-28T21:20:11.827Z,16.20
2023-04-28T21:22:38.462Z,16.20
2023-04-28T21:25:05.173Z,16.21
2023-04-28T21:27:31.783Z,16.20
2023-04-28T21:29:58.266Z,16.21
2023-04-28T21:32:25.159Z,16.20
2023-04-28T21:34:51.725Z,16.20
2023-04-28T21:37:18.086Z,16.20
2023-04-28T21:39:45.091Z,16.20
2023-04-28T21:42:11.446Z,16.21
2023-04-28T21:44:37.765Z,16.21
2023-04-28T21:47:04.157Z,16.21
2023-04-28T21:49:30.533Z,16.21
2023-04-28T21:51:57.014Z,16.20
2023-04-28T21:54:23.379Z,16.20
2023-04-28T21:56:49.840Z,16.20
2023-04-28T21:59:16.250Z,16.21
2023-04-28T22:01:43.297Z,16.21
2023-04-28T22:04:09.994Z,16.20
2023-04-28T22:06:36.557Z,16.21
2023-04-28T22:09:03.134Z,16.20
2023-04-28T22:11:29.542Z,16.21
2023-04-28T22:13:55.958Z,16.21
2023-04-28T22:16:24.256Z,16.20
2023-04-28T22:18:50.756Z,16.20
2023-04-28T22:21:17.152Z,16.19
2023-04-28T22:23:43.531Z,16.19
2023-04-28T22:26:10.124Z,16.20
2023-04-28T22:28:36.944Z,16.20
2023-04-28T22:31:03.294Z,16.20
2023-04-28T22:33:29.662Z,16.21
2023-04-28T22:35:56.141Z,16.20
2023-04-28T22:38:23.769Z,16.19
2023-04-28T22:40:50.413Z,16.20
2023-04-28T22:43:17.350Z,16.19
2023-04-28T22:45:43.915Z,16.21
2023-04-28T22:48:10.413Z,16.20
2023-04-28T22:50:37.789Z,16.20
2023-04-28T22:53:04.293Z,16.20
2023-04-28T22:55:32.670Z,16.20
2023-04-28T22:57:59.334Z,16.19
2023-04-28T23:00:25.739Z,16.19
2023-04-28T23:02:52.549Z,16.18
2023-04-28T23:05:18.881Z,16.19
2023-04-28T23:07:45.711Z,16.18
2023-04-28T23:10:14.266Z,16.19
2023-04-28T23:12:41.326Z,16.19
2023-04-28T23:15:08.173Z,16.20
2023-04-28T23:17:34.726Z,16.19
2023-04-28T23:20:10.998Z,16.19
2023-04-28T23:22:37.795Z,16.19
2023-04-28T23:25:04.158Z,16.20
2023-04-28T23:27:30.669Z,16.20
2023-04-28T23:29:57.054Z,16.20
2023-04-28T23:32:23.461Z,16.19
2023-04-28T23:34:49.993Z,16.19
2023-04-28T23:37:16.471Z,16.19
2023-04-28T23:39:43.168Z,16.18
2023-04-28T23:42:09.472Z,16.20
2023-04-28T23:44:35.977Z,16.18
2023-04-28T23:47:02.636Z,16.18
2023-04-28T23:49:29.291Z,16.18
2023-04-28T23:51:55.764Z,16.18
2023-04-28T23:54:22.326Z,16.17
2023-04-28T23:56:48.858Z,16.16
2023-04-28T23:59:15.269Z,16.17
